Iron Lady — WTK5059 — position and weather

sailwx.info

Track history (hours):
 
Tides and Currents Weather Stations Pressure Air Temp Water Temp Dewpoint Dewpoint Depression Visibility Wind Speed Wind Dir Waves Ship Positions

Iron Lady

Owner: IRON LADY INC, SOUTH BEND, WA. More information available from US FCC via Universal Licensing System and Coast Guard Vessel Documentation Center.

Last reported at 2015-Jun-27 15:08 UTC. Time now 2015-Jul-01 04:54 UTC.
Position N 46°10' W 123°55'.

Type: Fishing. MMSI: 367037240.

Date/timePositionNaut miles runAvg speedWind from/ knotsBaromVisibWave heightAir tempDewpointWater temp
2015-Jun-27 15:08N 46°10' W 123°55'0 0.0
2015-Jun-27 14:33N 46°10' W 123°55'0 0.0
2015-Jun-27 13:16N 46°10' W 123°55'0 0.0
2015-Jun-27 12:11N 46°10' W 123°55'0 0.0
2015-Jun-27 10:16N 46°10' W 123°55'0 0.0
2015-Jun-27 06:33N 46°10' W 123°55'0 0.0
2015-Jun-27 05:31N 46°10' W 123°55'0 0.0
2015-Jun-27 04:18N 46°10' W 123°55'1 1.7
2015-Jun-27 03:33N 46°11' W 123°55'10 9.0
2015-Jun-27 02:28N 46°16' W 124°07'8 8.3
2015-Jun-27 01:33N 46°22' W 124°14'8 8.5
2015-Jun-27 00:33N 46°29' W 124°19'9 9.0
2015-Jun-26 23:33N 46°37' W 124°25'9 8.8
2015-Jun-26 22:33N 46°45' W 124°31'9 8.4
2015-Jun-26 21:26N 46°54' W 124°37'7 8.1
2015-Jun-26 20:33N 46°60' W 124°43'1 0.1
2015-Jun-26 13:18N 46°59' W 124°44'5 0.5
2015-Jun-26 03:30N 47°04' W 124°45'3 2.0
2015-Jun-26 02:15N 47°02' W 124°44'10 3.0
2015-Jun-25 23:04N 46°53' W 124°37'1 1.0
2015-Jun-25 22:25N 46°53' W 124°38'4 1.9
2015-Jun-25 20:26N 46°54' W 124°43'3 2.1
2015-Jun-25 19:05N 46°52' W 124°44'1 1.9
2015-Jun-25 18:29N 46°51' W 124°45'1 1.2
2015-Jun-25 17:33N 46°51' W 124°43'12 3.9
2015-Jun-25 14:31N 47°02' W 124°48'3 2.1
2015-Jun-25 13:12N 47°05' W 124°48'2 0.4
2015-Jun-25 08:33N 47°05' W 124°51'0 0.3
2015-Jun-25 07:31N 47°05' W 124°51'2 0.8
2015-Jun-25 05:27N 47°07' W 124°51'3 3.6
2015-Jun-25 04:33N 47°04' W 124°49'2 1.6
2015-Jun-25 03:26N 47°02' W 124°48'2 2.2
2015-Jun-25 02:31N 47°00' W 124°46'1 0.7
2015-Jun-25 01:32N 47°00' W 124°47'3 2.1
2015-Jun-25 00:19N 47°02' W 124°49'3 1.4
2015-Jun-24 22:23N 47°00' W 124°47'2 2.2
2015-Jun-24 21:30N 46°59' W 124°46'2 1.8
2015-Jun-24 20:33N 46°60' W 124°47'2 2.1
2015-Jun-24 19:33N 47°02' W 124°48'1 0.5
2015-Jun-24 18:23N 47°02' W 124°48'3 2.3
2015-Jun-24 17:18N 46°59' W 124°46'5 1.8
2015-Jun-24 14:33N 46°56' W 124°41'2 2.3
2015-Jun-24 13:32N 46°53' W 124°41'3 2.3
2015-Jun-24 12:22N 46°51' W 124°43'0 0.5
2015-Jun-24 11:33N 46°52' W 124°44'0 0.4
2015-Jun-24 10:33N 46°52' W 124°45'2 1.7
2015-Jun-24 09:33N 46°52' W 124°42'7 7.5
2015-Jun-24 08:33N 46°46' W 124°35'8 7.6
2015-Jun-24 07:33N 46°39' W 124°29'8 7.8
2015-Jun-24 06:33N 46°33' W 124°23'8 7.5
2015-Jun-24 05:33N 46°27' W 124°17'8 7.5
2015-Jun-24 04:32N 46°20' W 124°11'6 6.6
2015-Jun-24 03:33N 46°15' W 124°05'8 8.2
2015-Jun-24 02:33N 46°12' W 123°55'2 2.1
2015-Jun-24 01:33N 46°11' W 123°51'3 2.6
2015-Jun-24 00:33N 46°10' W 123°55'0 0.0
2015-Jun-23 23:33N 46°10' W 123°55'0 0.0
2015-Jun-23 22:33N 46°10' W 123°55'0 0.0
2015-Jun-23 21:33N 46°10' W 123°55'0 0.0
2015-Jun-23 20:33N 46°10' W 123°55'0 0.0
2015-Jun-23 19:33N 46°10' W 123°55'0 0.0
2015-Jun-23 19:05N 46°10' W 123°55'3 0.1
2015-Jun-22 19:34N 46°11' W 123°52'1 0.9
2015-Jun-22 18:33N 46°12' W 123°50'2 2.2
2015-Jun-22 17:34N 46°11' W 123°53'2 1.6
2015-Jun-22 16:34N 46°10' W 123°55'0 0.0
2015-Jun-22 15:34N 46°10' W 123°55'0 0.0
2015-Jun-22 14:33N 46°10' W 123°55'0 0.0
2015-Jun-22 13:34N 46°10' W 123°55'0 0.0
2015-Jun-22 12:33N 46°10' W 123°55'1 1.1
2015-Jun-22 11:34N 46°11' W 123°54'9 8.7
2015-Jun-22 10:34N 46°15' W 124°06'8 8.0
2015-Jun-22 09:34N 46°21' W 124°13'8 8.3
2015-Jun-22 08:33N 46°29' W 124°19'8 8.3
2015-Jun-22 07:33N 46°36' W 124°24'8 8.1
2015-Jun-22 06:33N 46°42' W 124°32'8 7.6
2015-Jun-22 05:32N 46°48' W 124°38'7 7.0
2015-Jun-22 04:34N 46°54' W 124°44'1 1.5
2015-Jun-22 03:34N 46°53' W 124°44'2 2.1
2015-Jun-22 02:34N 46°51' W 124°44'0 0.4
2015-Jun-22 01:34N 46°51' W 124°43'2 2.3
2015-Jun-22 00:33N 46°53' W 124°44'1 1.0
2015-Jun-21 23:34N 46°54' W 124°45'2 2.1
2015-Jun-21 22:33N 46°52' W 124°44'2 2.1
2015-Jun-21 21:30N 46°50' W 124°44'0 0.4
2015-Jun-21 20:33N 46°50' W 124°44'2 2.1
2015-Jun-21 19:33N 46°52' W 124°45'2 2.1
2015-Jun-21 18:32N 46°54' W 124°45'0 0.4
2015-Jun-21 17:34N 46°54' W 124°45'2 2.1
2015-Jun-21 16:34N 46°52' W 124°44'2 2.0
2015-Jun-21 15:31N 46°50' W 124°44'1 0.8
2015-Jun-21 14:32N 46°51' W 124°44'2 2.4
2015-Jun-21 13:33N 46°53' W 124°45'1 2.4
2015-Jun-21 13:10N 46°54' W 124°45'3 5.1
2015-Jun-21 12:28N 46°57' W 124°48'1 1.0
2015-Jun-21 11:32N 46°58' W 124°48'1 1.3
2015-Jun-21 10:33N 46°59' W 124°48'1 1.4
2015-Jun-21 09:33N 47°00' W 124°48'1 1.2
2015-Jun-21 08:33N 47°02' W 124°48'1 1.1
2015-Jun-21 07:32N 47°03' W 124°48'1 1.1
2015-Jun-21 06:31N 47°04' W 124°48'4 3.4
2015-Jun-21 05:28N 47°00' W 124°47'5 5.7
2015-Jun-21 04:33N 46°55' W 124°45'1 1.5
2015-Jun-21 03:33N 46°54' W 124°45'2 1.8
2015-Jun-21 02:34N 46°52' W 124°44'1 1.4
2015-Jun-21 01:33N 46°51' W 124°43'2 2.2
2015-Jun-21 00:34N 46°53' W 124°43'2 2.2
2015-Jun-20 23:34N 46°55' W 124°44'1 1.4
2015-Jun-20 22:31N 46°54' W 124°45'1 2.1
2015-Jun-20 22:09N 46°53' W 124°45'1 2.1
2015-Jun-20 21:34N 46°52' W 124°45'2 2.1
2015-Jun-20 20:33N 46°50' W 124°44'1 1.1
2015-Jun-20 19:33N 46°51' W 124°45'1 2.1
2015-Jun-20 19:02N 46°52' W 124°45'1 2.1
2015-Jun-20 18:31N 46°53' W 124°45'1 0.9
2015-Jun-20 17:56N 46°54' W 124°45'2 1.8
2015-Jun-20 17:05N 46°52' W 124°44'2 2.1
2015-Jun-20 16:10N 46°50' W 124°44'1 2.2
2015-Jun-20 15:32N 46°49' W 124°43'1 1.3
2015-Jun-20 14:33N 46°50' W 124°42'3 2.2
2015-Jun-20 13:20N 46°53' W 124°44'1 1.7
2015-Jun-20 12:33N 46°54' W 124°45'3 2.6
2015-Jun-20 11:32N 46°52' W 124°48'2 0.9
2015-Jun-20 09:31N 46°54' W 124°47'2 1.0
2015-Jun-20 07:18N 46°56' W 124°47'1 1.2
2015-Jun-20 06:10N 46°57' W 124°47'4 6.3
2015-Jun-20 05:32N 46°54' W 124°46'5 0.8
2015-Jun-19 23:20N 46°50' W 124°42'0 3.4
2015-Jun-19 23:17N 46°50' W 124°42'8 2.1
2015-Jun-19 19:27N 46°58' W 124°41'6 1.0
2015-Jun-19 13:31N 47°03' W 124°44'2 0.9
2015-Jun-19 11:33N 47°01' W 124°45'13 6.5
2015-Jun-19 09:33N 46°50' W 124°35'8 7.6
2015-Jun-19 08:33N 46°44' W 124°30'8 7.6
2015-Jun-19 07:33N 46°37' W 124°24'8 7.7
2015-Jun-19 06:33N 46°30' W 124°19'8 7.7
2015-Jun-19 05:33N 46°23' W 124°13'9 8.9
2015-Jun-19 04:33N 46°16' W 124°07'1010.4
2015-Jun-19 03:33N 46°11' W 123°54'1 1.4
2015-Jun-19 02:33N 46°11' W 123°51'3 2.6
2015-Jun-19 01:34N 46°10' W 123°55'0 0.0
2015-Jun-19 00:33N 46°10' W 123°55'0 0.0
2015-Jun-18 23:34N 46°10' W 123°55'0 0.0
2015-Jun-18 22:34N 46°10' W 123°55'0 0.0
2015-Jun-18 21:34N 46°10' W 123°55'0 0.0
2015-Jun-18 20:34N 46°10' W 123°55'0 0.0
2015-Jun-18 19:34N 46°10' W 123°55'0 0.0
2015-Jun-18 18:34N 46°10' W 123°55'0 0.0
2015-Jun-18 17:33N 46°10' W 123°55'0 0.0
2015-Jun-18 16:33N 46°10' W 123°55'0 0.0
2015-Jun-18 15:33N 46°10' W 123°55'0 0.0
2015-Jun-18 14:33N 46°10' W 123°55'0 0.0
2015-Jun-18 13:34N 46°10' W 123°55'0 0.0
2015-Jun-18 12:33N 46°10' W 123°55'0 0.0
2015-Jun-18 11:33N 46°10' W 123°55'0 0.0
2015-Jun-18 10:34N 46°10' W 123°55'0 0.0
2015-Jun-18 09:33N 46°10' W 123°55'0 0.0
2015-Jun-18 08:33N 46°10' W 123°55'0 0.0
2015-Jun-18 07:33N 46°10' W 123°55'0 0.0
2015-Jun-18 06:33N 46°10' W 123°55'0 0.0
2015-Jun-18 05:33N 46°10' W 123°55'0 0.0
2015-Jun-18 04:34N 46°10' W 123°55'0 0.0
2015-Jun-18 03:33N 46°10' W 123°55'0 0.0
2015-Jun-18 02:34N 46°10' W 123°55'0 0.0
2015-Jun-18 01:34N 46°10' W 123°55'0 0.0
2015-Jun-18 00:34N 46°10' W 123°55'0 0.0
2015-Jun-17 23:33N 46°10' W 123°55'0 0.0
2015-Jun-17 22:33N 46°10' W 123°55'0 0.0
2015-Jun-17 21:33N 46°10' W 123°55'0 0.0
2015-Jun-17 20:34N 46°10' W 123°55'0 0.0
2015-Jun-17 19:34N 46°10' W 123°55'0 0.0
2015-Jun-17 18:34N 46°10' W 123°55'0 0.0
2015-Jun-17 17:33N 46°10' W 123°55'0 0.0
2015-Jun-17 16:33N 46°10' W 123°55'0 0.0
2015-Jun-17 15:34N 46°10' W 123°55'  
Track history (hours):
 
Tides and Currents Weather Stations Pressure Air Temp Water Temp Dewpoint Dewpoint Depression Visibility Wind Speed Wind Dir Waves Ship Positions

Iron Lady

Owner: IRON LADY INC, SOUTH BEND, WA. More information available from US FCC via Universal Licensing System and Coast Guard Vessel Documentation Center.

Last reported at 2015-Jun-27 15:08 UTC. Time now 2015-Jul-01 04:54 UTC.
Position N 46°10' W 123°55'.

Type: Fishing. MMSI: 367037240.

Date/timePositionNaut miles runAvg speedWind from/ knotsBaromVisibWave heightAir tempDewpointWater temp
2015-Jun-27 15:08N 46°10' W 123°55'0 0.0
2015-Jun-27 14:33N 46°10' W 123°55'0 0.0
2015-Jun-27 13:16N 46°10' W 123°55'0 0.0
2015-Jun-27 12:11N 46°10' W 123°55'0 0.0
2015-Jun-27 10:16N 46°10' W 123°55'0 0.0
2015-Jun-27 06:33N 46°10' W 123°55'0 0.0
2015-Jun-27 05:31N 46°10' W 123°55'0 0.0
2015-Jun-27 04:18N 46°10' W 123°55'1 1.7
2015-Jun-27 03:33N 46°11' W 123°55'10 9.0
2015-Jun-27 02:28N 46°16' W 124°07'8 8.3
2015-Jun-27 01:33N 46°22' W 124°14'8 8.5
2015-Jun-27 00:33N 46°29' W 124°19'9 9.0
2015-Jun-26 23:33N 46°37' W 124°25'9 8.8
2015-Jun-26 22:33N 46°45' W 124°31'9 8.4
2015-Jun-26 21:26N 46°54' W 124°37'7 8.1
2015-Jun-26 20:33N 46°60' W 124°43'1 0.1
2015-Jun-26 13:18N 46°59' W 124°44'5 0.5
2015-Jun-26 03:30N 47°04' W 124°45'3 2.0
2015-Jun-26 02:15N 47°02' W 124°44'10 3.0
2015-Jun-25 23:04N 46°53' W 124°37'1 1.0
2015-Jun-25 22:25N 46°53' W 124°38'4 1.9
2015-Jun-25 20:26N 46°54' W 124°43'3 2.1
2015-Jun-25 19:05N 46°52' W 124°44'1 1.9
2015-Jun-25 18:29N 46°51' W 124°45'1 1.2
2015-Jun-25 17:33N 46°51' W 124°43'12 3.9
2015-Jun-25 14:31N 47°02' W 124°48'3 2.1
2015-Jun-25 13:12N 47°05' W 124°48'2 0.4
2015-Jun-25 08:33N 47°05' W 124°51'0 0.3
2015-Jun-25 07:31N 47°05' W 124°51'2 0.8
2015-Jun-25 05:27N 47°07' W 124°51'3 3.6
2015-Jun-25 04:33N 47°04' W 124°49'2 1.6
2015-Jun-25 03:26N 47°02' W 124°48'2 2.2
2015-Jun-25 02:31N 47°00' W 124°46'1 0.7
2015-Jun-25 01:32N 47°00' W 124°47'3 2.1
2015-Jun-25 00:19N 47°02' W 124°49'3 1.4
2015-Jun-24 22:23N 47°00' W 124°47'2 2.2
2015-Jun-24 21:30N 46°59' W 124°46'2 1.8
2015-Jun-24 20:33N 46°60' W 124°47'2 2.1
2015-Jun-24 19:33N 47°02' W 124°48'1 0.5
2015-Jun-24 18:23N 47°02' W 124°48'3 2.3
2015-Jun-24 17:18N 46°59' W 124°46'5 1.8
2015-Jun-24 14:33N 46°56' W 124°41'2 2.3
2015-Jun-24 13:32N 46°53' W 124°41'3 2.3
2015-Jun-24 12:22N 46°51' W 124°43'0 0.5
2015-Jun-24 11:33N 46°52' W 124°44'0 0.4
2015-Jun-24 10:33N 46°52' W 124°45'2 1.7
2015-Jun-24 09:33N 46°52' W 124°42'7 7.5
2015-Jun-24 08:33N 46°46' W 124°35'8 7.6
2015-Jun-24 07:33N 46°39' W 124°29'8 7.8
2015-Jun-24 06:33N 46°33' W 124°23'8 7.5
2015-Jun-24 05:33N 46°27' W 124°17'8 7.5
2015-Jun-24 04:32N 46°20' W 124°11'6 6.6
2015-Jun-24 03:33N 46°15' W 124°05'8 8.2
2015-Jun-24 02:33N 46°12' W 123°55'2 2.1
2015-Jun-24 01:33N 46°11' W 123°51'3 2.6
2015-Jun-24 00:33N 46°10' W 123°55'0 0.0
2015-Jun-23 23:33N 46°10' W 123°55'0 0.0
2015-Jun-23 22:33N 46°10' W 123°55'0 0.0
2015-Jun-23 21:33N 46°10' W 123°55'0 0.0
2015-Jun-23 20:33N 46°10' W 123°55'0 0.0
2015-Jun-23 19:33N 46°10' W 123°55'0 0.0
2015-Jun-23 19:05N 46°10' W 123°55'3 0.1
2015-Jun-22 19:34N 46°11' W 123°52'1 0.9
2015-Jun-22 18:33N 46°12' W 123°50'2 2.2
2015-Jun-22 17:34N 46°11' W 123°53'2 1.6
2015-Jun-22 16:34N 46°10' W 123°55'0 0.0
2015-Jun-22 15:34N 46°10' W 123°55'0 0.0
2015-Jun-22 14:33N 46°10' W 123°55'0 0.0
2015-Jun-22 13:34N 46°10' W 123°55'0 0.0
2015-Jun-22 12:33N 46°10' W 123°55'1 1.1
2015-Jun-22 11:34N 46°11' W 123°54'9 8.7
2015-Jun-22 10:34N 46°15' W 124°06'8 8.0
2015-Jun-22 09:34N 46°21' W 124°13'8 8.3
2015-Jun-22 08:33N 46°29' W 124°19'8 8.3
2015-Jun-22 07:33N 46°36' W 124°24'8 8.1
2015-Jun-22 06:33N 46°42' W 124°32'8 7.6
2015-Jun-22 05:32N 46°48' W 124°38'7 7.0
2015-Jun-22 04:34N 46°54' W 124°44'1 1.5
2015-Jun-22 03:34N 46°53' W 124°44'2 2.1
2015-Jun-22 02:34N 46°51' W 124°44'0 0.4
2015-Jun-22 01:34N 46°51' W 124°43'2 2.3
2015-Jun-22 00:33N 46°53' W 124°44'1 1.0
2015-Jun-21 23:34N 46°54' W 124°45'2 2.1
2015-Jun-21 22:33N 46°52' W 124°44'2 2.1
2015-Jun-21 21:30N 46°50' W 124°44'0 0.4
2015-Jun-21 20:33N 46°50' W 124°44'2 2.1
2015-Jun-21 19:33N 46°52' W 124°45'2 2.1
2015-Jun-21 18:32N 46°54' W 124°45'0 0.4
2015-Jun-21 17:34N 46°54' W 124°45'2 2.1
2015-Jun-21 16:34N 46°52' W 124°44'2 2.0
2015-Jun-21 15:31N 46°50' W 124°44'1 0.8
2015-Jun-21 14:32N 46°51' W 124°44'2 2.4
2015-Jun-21 13:33N 46°53' W 124°45'1 2.4
2015-Jun-21 13:10N 46°54' W 124°45'3 5.1
2015-Jun-21 12:28N 46°57' W 124°48'1 1.0
2015-Jun-21 11:32N 46°58' W 124°48'1 1.3
2015-Jun-21 10:33N 46°59' W 124°48'1 1.4
2015-Jun-21 09:33N 47°00' W 124°48'1 1.2
2015-Jun-21 08:33N 47°02' W 124°48'1 1.1
2015-Jun-21 07:32N 47°03' W 124°48'1 1.1
2015-Jun-21 06:31N 47°04' W 124°48'4 3.4
2015-Jun-21 05:28N 47°00' W 124°47'5 5.7
2015-Jun-21 04:33N 46°55' W 124°45'1 1.5
2015-Jun-21 03:33N 46°54' W 124°45'2 1.8
2015-Jun-21 02:34N 46°52' W 124°44'1 1.4
2015-Jun-21 01:33N 46°51' W 124°43'2 2.2
2015-Jun-21 00:34N 46°53' W 124°43'2 2.2
2015-Jun-20 23:34N 46°55' W 124°44'1 1.4
2015-Jun-20 22:31N 46°54' W 124°45'1 2.1
2015-Jun-20 22:09N 46°53' W 124°45'1 2.1
2015-Jun-20 21:34N 46°52' W 124°45'2 2.1
2015-Jun-20 20:33N 46°50' W 124°44'1 1.1
2015-Jun-20 19:33N 46°51' W 124°45'1 2.1
2015-Jun-20 19:02N 46°52' W 124°45'1 2.1
2015-Jun-20 18:31N 46°53' W 124°45'1 0.9
2015-Jun-20 17:56N 46°54' W 124°45'2 1.8
2015-Jun-20 17:05N 46°52' W 124°44'2 2.1
2015-Jun-20 16:10N 46°50' W 124°44'1 2.2
2015-Jun-20 15:32N 46°49' W 124°43'1 1.3
2015-Jun-20 14:33N 46°50' W 124°42'3 2.2
2015-Jun-20 13:20N 46°53' W 124°44'1 1.7
2015-Jun-20 12:33N 46°54' W 124°45'3 2.6
2015-Jun-20 11:32N 46°52' W 124°48'2 0.9
2015-Jun-20 09:31N 46°54' W 124°47'2 1.0
2015-Jun-20 07:18N 46°56' W 124°47'1 1.2
2015-Jun-20 06:10N 46°57' W 124°47'4 6.3
2015-Jun-20 05:32N 46°54' W 124°46'5 0.8
2015-Jun-19 23:20N 46°50' W 124°42'0 3.4
2015-Jun-19 23:17N 46°50' W 124°42'8 2.1
2015-Jun-19 19:27N 46°58' W 124°41'6 1.0
2015-Jun-19 13:31N 47°03' W 124°44'2 0.9
2015-Jun-19 11:33N 47°01' W 124°45'13 6.5
2015-Jun-19 09:33N 46°50' W 124°35'8 7.6
2015-Jun-19 08:33N 46°44' W 124°30'8 7.6
2015-Jun-19 07:33N 46°37' W 124°24'8 7.7
2015-Jun-19 06:33N 46°30' W 124°19'8 7.7
2015-Jun-19 05:33N 46°23' W 124°13'9 8.9
2015-Jun-19 04:33N 46°16' W 124°07'1010.4
2015-Jun-19 03:33N 46°11' W 123°54'1 1.4
2015-Jun-19 02:33N 46°11' W 123°51'3 2.6
2015-Jun-19 01:34N 46°10' W 123°55'0 0.0
2015-Jun-19 00:33N 46°10' W 123°55'0 0.0
2015-Jun-18 23:34N 46°10' W 123°55'0 0.0
2015-Jun-18 22:34N 46°10' W 123°55'0 0.0
2015-Jun-18 21:34N 46°10' W 123°55'0 0.0
2015-Jun-18 20:34N 46°10' W 123°55'0 0.0
2015-Jun-18 19:34N 46°10' W 123°55'0 0.0
2015-Jun-18 18:34N 46°10' W 123°55'0 0.0
2015-Jun-18 17:33N 46°10' W 123°55'0 0.0
2015-Jun-18 16:33N 46°10' W 123°55'0 0.0
2015-Jun-18 15:33N 46°10' W 123°55'0 0.0
2015-Jun-18 14:33N 46°10' W 123°55'0 0.0
2015-Jun-18 13:34N 46°10' W 123°55'0 0.0
2015-Jun-18 12:33N 46°10' W 123°55'0 0.0
2015-Jun-18 11:33N 46°10' W 123°55'0 0.0
2015-Jun-18 10:34N 46°10' W 123°55'0 0.0
2015-Jun-18 09:33N 46°10' W 123°55'0 0.0
2015-Jun-18 08:33N 46°10' W 123°55'0 0.0
2015-Jun-18 07:33N 46°10' W 123°55'0 0.0
2015-Jun-18 06:33N 46°10' W 123°55'0 0.0
2015-Jun-18 05:33N 46°10' W 123°55'0 0.0
2015-Jun-18 04:34N 46°10' W 123°55'0 0.0
2015-Jun-18 03:33N 46°10' W 123°55'0 0.0
2015-Jun-18 02:34N 46°10' W 123°55'0 0.0
2015-Jun-18 01:34N 46°10' W 123°55'0 0.0
2015-Jun-18 00:34N 46°10' W 123°55'0 0.0
2015-Jun-17 23:33N 46°10' W 123°55'0 0.0
2015-Jun-17 22:33N 46°10' W 123°55'0 0.0
2015-Jun-17 21:33N 46°10' W 123°55'0 0.0
2015-Jun-17 20:34N 46°10' W 123°55'0 0.0
2015-Jun-17 19:34N 46°10' W 123°55'0 0.0
2015-Jun-17 18:34N 46°10' W 123°55'0 0.0
2015-Jun-17 17:33N 46°10' W 123°55'0 0.0
2015-Jun-17 16:33N 46°10' W 123°55'0 0.0
2015-Jun-17 15:34N 46°10' W 123°55'  

Dump ship's entire track history